Fort Myers, FL

5:38 AM EDT on September 16, 2014 (GMT -0400)
Orangewood | Change Station
CLOSE
Current Station
Personal Weather Station
Location: Fort Myers, FL
Elevation: 20 ft
Nearby Weather Stations

Elev 20 ft 26.60 °N, 81.88 °W | Updated 17 seconds ago

Clear
Clear
75.9 °F
Feels Like 75 °F
N
0.0
Wind Variable Wind from East
Gusts 0.0 mph

Today
High -- | Low -- °F
--% Chance of Precip.
Yesterday
High -- | Low -- °F
Precip. -- in
7:13 AM 7:30 PM
Waning Gibbous, 47% visible
Pressure 30.07 in
Visibility 10.0 miles
Clouds Clear
Heat Index 75 °F
Dew Point 75 °F
Humidity 96%
Rainfall 0.00 in
Snow Depth Not available.
UV 0 out of 12
Pollen 6.20 out of 12
Air Quality Not available.
Flu Activity Not available.
METAR KFMY 160853Z AUTO 00000KT 10SM CLR 24/23 A3006 RMK AO2 SLP181 T02440233 56015 $

More Conditions Fewer Conditions

Pressure 30.07 in
Visibility 10.0 miles
Clouds Clear
Heat Index 75 °F
Dew Point 75 °F
Humidity 96%
Rainfall 0.00 in
Snow Depth Not available.
UV 0 out of 12
Pollen 6.20 out of 12
Air Quality Not available.
Flu Activity Not available.
METAR KFMY 160853Z AUTO 00000KT 10SM CLR 24/23 A3006 RMK AO2 SLP181 T02440233 56015 $

More Conditions Fewer Conditions

10-Day Weather Forecast

Almanac

Astronomy

Sep. 16, 2014 Rise Set
Actual Time 7:13 AM EDT 7:30 PM EDT
Civil Twilight 6:50 AM EDT 7:53 PM EDT
Nautical Twilight 6:23 AM EDT 8:20 PM EDT
Astronomical Twilight 5:55 AM EDT 8:48 PM EDT
Moon 12:45 AM EDT 2:29 PM EDT
Length of Visible Light 13h 03m
Length of Day
12h 17m
Tomorrow will be 1m 34s shorter.
Waning Gibbous, 47% of the Moon is Illuminated
Today
Waning Gibbous
Sep 24
New
Oct 1
First Quarter
Oct 8
Full
Oct 15
Last Quarter

Today's Extremes

State Highs State Lows

Community

WunderPhotos

Upload Photos

1,753,714 photos uploaded!

WunderBlogs® & News

Nearby

Snow Depth

Station Depth Elevation
No new snow has been reported.

Earthquake Activity

City Distance Mag. Time & Date
No recent earthquake activity has been reported nearby.
Minimum magnitude displayed is 2.5.

Coastal Water Temperatures

Place Temperature
Fort Myers, FL 86.0 °F
Naples, FL 89.1 °F

Nearby Weather Stations